Time;durP1;ratioP1;P1;durP2;ratioP2;P2;SDS_P1;SDS_P2;PMS_P1;PMS_P2;Temp;Humidity;BMP_temperature;BMP_pressure;BME280_temperature;BME280_humidity;BME280_pressure;Samples;Min_cycle;Max_cycle;Signal;HPM_P1;HPM_P2
2023/02/02 00:01:19;;;;;;;3.67;1.20;;;;;;;-2.06;79.70;96345.00;5076339;28;20059;-61
2023/02/02 00:03:47;;;;;;;1.40;1.23;;;;;;;-2.07;79.55;96339.03;5076286;28;20080;-61
2023/02/02 00:06:17;;;;;;;1.33;1.20;;;;;;;-2.08;79.64;96337.28;5076277;28;20048;-61
2023/02/02 00:08:44;;;;;;;1.17;1.00;;;;;;;-2.04;79.13;96343.31;5076264;28;20053;-61
2023/02/02 00:11:11;;;;;;;2.08;1.20;;;;;;;-2.07;79.31;96359.53;5076051;28;20053;-62
2023/02/02 00:13:39;;;;;;;2.63;1.20;;;;;;;-2.16;79.91;96359.44;5076133;28;20045;-63
2023/02/02 00:16:36;;;;;;;1.58;1.10;;;;;;;-2.13;80.11;96351.78;5076083;28;20482;-62
2023/02/02 00:19:07;;;;;;;1.90;1.17;;;;;;;-2.11;80.26;96350.09;5076066;28;20048;-62
2023/02/02 00:21:36;;;;;;;1.75;1.05;;;;;;;-2.14;80.01;96360.31;5076057;28;20498;-62
2023/02/02 00:24:05;;;;;;;1.17;1.08;;;;;;;-2.08;80.22;96359.53;5076032;28;20079;-62
2023/02/02 00:26:32;;;;;;;1.27;0.90;;;;;;;-2.04;80.26;96362.09;5075826;28;20501;-63
2023/02/02 00:29:00;;;;;;;1.38;0.98;;;;;;;-1.96;80.39;96358.78;5075864;28;20080;-62
2023/02/02 00:31:27;;;;;;;1.73;1.20;;;;;;;-1.99;80.36;96358.75;5075889;28;20056;-62
2023/02/02 00:33:55;;;;;;;1.33;1.20;;;;;;;-2.07;80.96;96340.72;5075801;28;20062;-62
2023/02/02 00:36:23;;;;;;;2.30;2.00;;;;;;;-2.07;81.55;96346.72;5075747;28;20045;-62
2023/02/02 00:38:52;;;;;;;1.98;1.45;;;;;;;-2.05;81.98;96342.44;5075531;28;20131;-62
2023/02/02 00:41:20;;;;;;;2.67;1.88;;;;;;;-2.02;82.25;96349.31;5075593;28;20399;-62
2023/02/02 00:45:14;;;;;;;3.55;2.15;;;;;;;-1.99;82.23;96359.59;5075525;28;20048;-62
2023/02/02 00:46:37;;;;;;;1.60;1.50;;;;;;;-1.89;82.31;96354.53;5075613;28;20059;-63
2023/02/02 00:49:04;;;;;;;1.30;1.20;;;;;;;-1.77;80.69;96359.78;5075451;28;20041;-62
2023/02/02 00:51:32;;;;;;;2.08;1.63;;;;;;;-1.51;78.00;96363.38;5075409;28;20139;-62
2023/02/02 00:54:01;;;;;;;1.50;1.30;;;;;;;-1.20;76.87;96358.44;5075430;28;20129;-62
2023/02/02 00:56:30;;;;;;;5.13;2.13;;;;;;;-0.91;74.50;96360.28;5075319;28;20123;-61
2023/02/02 00:58:57;;;;;;;1.48;1.20;;;;;;;-0.57;71.63;96354.44;5075237;28;20420;-61
2023/02/02 01:01:24;;;;;;;1.85;1.38;;;;;;;-0.41;71.54;96350.19;5075183;28;20044;-61
2023/02/02 01:03:52;;;;;;;2.17;1.33;;;;;;;-0.16;69.61;96348.53;5075250;28;20048;-62
2023/02/02 01:06:20;;;;;;;2.35;1.20;;;;;;;-0.05;70.05;96347.69;5075229;28;20045;-63
2023/02/02 01:08:47;;;;;;;1.48;1.20;;;;;;;0.08;70.77;96356.25;5075073;28;20135;-62
2023/02/02 01:11:16;;;;;;;0.95;0.95;;;;;;;0.09;71.18;96355.41;5074849;28;20395;-63
2023/02/02 01:13:44;;;;;;;4.68;1.13;;;;;;;0.00;71.51;96356.28;5075031;28;20456;-62
2023/02/02 01:16:12;;;;;;;0.93;0.90;;;;;;;-0.01;71.74;96363.13;5074999;28;20045;-62
2023/02/02 01:18:40;;;;;;;1.00;0.80;;;;;;;-0.14;72.45;96377.69;5075047;28;20057;-62
2023/02/02 01:21:09;;;;;;;1.50;1.02;;;;;;;-0.22;72.88;96371.66;5074874;28;20128;-62
2023/02/02 01:23:37;;;;;;;1.42;1.00;;;;;;;-0.24;73.26;96377.66;5074823;28;20040;-62
2023/02/02 01:26:06;;;;;;;1.48;1.10;;;;;;;-0.42;74.29;96387.03;5074833;28;20056;-62
2023/02/02 01:28:35;;;;;;;10.88;3.65;;;;;;;-0.40;74.65;96390.44;5074640;28;20620;-62
2023/02/02 01:31:07;;;;;;;1.45;1.30;;;;;;;-0.41;75.52;96375.88;5074727;28;20121;-62
2023/02/02 01:33:34;;;;;;;1.85;1.02;;;;;;;-0.45;75.52;96366.47;5074683;28;20044;-63
2023/02/02 01:36:05;;;;;;;1.92;1.60;;;;;;;-0.45;75.25;96358.75;5074549;28;20526;-62
2023/02/02 01:38:33;;;;;;;1.50;1.25;;;;;;;-0.40;73.98;96355.34;5074506;28;20242;-62
2023/02/02 01:41:03;;;;;;;4.22;1.38;;;;;;;-0.31;73.80;96351.06;5074466;28;20131;-62
2023/02/02 01:43:53;;;;;;;2.38;1.50;;;;;;;-0.18;73.88;96341.66;5074451;28;20049;-63
2023/02/02 01:46:23;;;;;;;1.35;1.05;;;;;;;-0.15;73.70;96339.94;5074454;28;20551;-62
2023/02/02 01:48:55;;;;;;;2.13;1.52;;;;;;;-0.14;73.46;96351.09;5074333;28;20494;-63
2023/02/02 01:51:27;;;;;;;2.78;1.90;;;;;;;-0.14;73.53;96343.38;5074221;28;20084;-62
2023/02/02 01:53:57;;;;;;;1.55;1.38;;;;;;;-0.15;73.32;96352.78;5074211;28;20062;-63
2023/02/02 01:56:28;;;;;;;1.88;1.40;;;;;;;-0.22;73.12;96343.38;5074271;28;20076;-62
2023/02/02 01:59:01;;;;;;;4.38;1.40;;;;;;;-0.23;73.47;96336.50;5074121;28;20376;-63
2023/02/02 02:01:28;;;;;;;2.60;1.40;;;;;;;-0.31;74.09;96336.50;5074076;28;20044;-62
2023/02/02 02:03:57;;;;;;;2.22;1.20;;;;;;;-0.42;74.14;96321.03;5074086;28;20048;-62
2023/02/02 02:06:25;;;;;;;1.10;1.02;;;;;;;-0.57;74.49;96328.72;5073904;28;20131;-62
2023/02/02 02:08:56;;;;;;;1.85;1.30;;;;;;;-0.71;74.83;96321.84;5073922;28;20048;-62
2023/02/02 02:11:24;;;;;;;2.58;1.52;;;;;;;-0.77;75.34;96326.97;5073709;28;20044;-62
2023/02/02 02:16:50;;;;;;;5.97;1.85;;;;;;;-1.07;76.28;96311.44;5073967;28;20059;-62
2023/02/02 02:26:32;;;;;;;3.67;1.55;;;;;;;-1.07;75.89;96325.97;5073180;28;20087;-62
2023/02/02 02:29:03;;;;;;;2.20;2.00;;;;;;;-1.12;77.19;96317.41;5073685;28;20047;-63
2023/02/02 02:32:00;;;;;;;2.45;2.17;;;;;;;-1.09;77.03;96322.56;5045972;28;20045;-63
2023/02/02 02:34:44;;;;;;;6.07;1.88;;;;;;;-1.17;77.39;96318.22;5057062;28;20155;-62
2023/02/02 02:37:17;;;;;;;2.25;1.70;;;;;;;-1.26;77.83;96323.34;5073391;28;20072;-62
2023/02/02 02:39:50;;;;;;;3.92;1.70;;;;;;;-1.21;78.09;96313.94;5073374;28;20136;-63
2023/02/02 02:42:21;;;;;;;1.80;1.25;;;;;;;-1.27;78.19;96319.91;5073382;28;20135;-63
2023/02/02 02:44:49;;;;;;;1.30;1.13;;;;;;;-1.23;78.21;96320.78;5073182;28;20040;-62
2023/02/02 02:47:19;;;;;;;3.78;1.30;;;;;;;-1.27;78.47;96321.59;5073409;28;20465;-62
2023/02/02 02:49:48;;;;;;;5.57;1.23;;;;;;;-1.31;78.70;96323.31;5073318;28;20048;-62
2023/02/02 02:52:16;;;;;;;3.70;1.42;;;;;;;-1.35;79.02;96318.13;5073276;28;20106;-63
2023/02/02 02:54:48;;;;;;;2.25;1.40;;;;;;;-1.28;79.34;96318.19;5073282;28;20139;-63
2023/02/02 02:57:55;;;;;;;2.50;1.10;;;;;;;-1.29;79.14;96320.75;5073190;28;20053;-63
2023/02/02 03:00:39;;;;;;;1.67;1.15;;;;;;;-1.29;79.59;96320.75;5055712;28;20486;-62
2023/02/02 03:03:13;;;;;;;1.15;0.93;;;;;;;-1.31;79.49;96328.44;5073154;28;20044;-62
2023/02/02 03:05:49;;;;;;;1.48;1.23;;;;;;;-1.26;79.73;96328.47;5073130;28;20123;-62
2023/02/02 03:08:23;;;;;;;1.38;1.20;;;;;;;-1.18;79.40;96331.03;5073139;28;20044;-63
2023/02/02 03:10:52;;;;;;;1.40;1.10;;;;;;;-1.11;79.71;96325.13;5073149;28;20048;-62
2023/02/02 03:13:19;;;;;;;0.90;0.90;;;;;;;-0.92;79.44;96325.19;5072805;28;20045;-63
2023/02/02 03:15:47;;;;;;;3.08;1.23;;;;;;;-0.75;78.83;96327.84;5072854;28;20102;-63
2023/02/02 03:18:17;;;;;;;1.25;1.10;;;;;;;-0.67;77.96;96331.28;5072947;28;20055;-62
2023/02/02 03:20:45;;;;;;;1.08;1.00;;;;;;;-0.58;77.81;96330.44;5072981;28;20080;-63
2023/02/02 03:23:13;;;;;;;5.65;1.10;;;;;;;-0.47;78.18;96329.59;5072935;28;20494;-63
2023/02/02 03:25:41;;;;;;;1.30;1.10;;;;;;;-0.35;78.45;96326.19;5072999;28;20448;-63
2023/02/02 03:28:09;;;;;;;1.23;1.13;;;;;;;-0.33;78.14;96330.47;5072851;28;20084;-62
2023/02/02 03:30:38;;;;;;;3.03;1.10;;;;;;;-0.22;77.31;96322.78;5073036;28;20135;-63
2023/02/02 03:33:06;;;;;;;1.00;1.00;;;;;;;-0.11;77.46;96325.38;5076947;28;20044;-63
2023/02/02 03:35:34;;;;;;;1.27;1.13;;;;;;;0.03;76.58;96325.38;5076907;28;20052;-63
2023/02/02 03:38:02;;;;;;;1.40;1.30;;;;;;;0.13;76.40;96321.09;5076717;28;20127;-63
2023/02/02 03:40:30;;;;;;;1.65;1.08;;;;;;;0.28;75.90;96315.09;5076772;28;20051;-63
2023/02/02 03:42:57;;;;;;;1.33;1.08;;;;;;;0.42;74.90;96327.94;5076755;28;20044;-63
2023/02/02 03:45:28;;;;;;;1.40;1.25;;;;;;;0.60;73.58;96324.47;5076762;28;20562;-63
2023/02/02 03:47:55;;;;;;;1.30;1.20;;;;;;;0.73;72.95;96321.88;5076781;28;20106;-63
2023/02/02 03:50:24;;;;;;;3.92;1.10;;;;;;;0.84;72.09;96322.69;5076585;28;20052;-63
2023/02/02 03:52:53;;;;;;;1.65;1.30;;;;;;;0.94;71.42;96333.00;5076617;28;20493;-62
2023/02/02 03:55:20;;;;;;;1.43;1.10;;;;;;;1.09;70.36;96332.06;5076581;28;20394;-63
2023/02/02 03:57:48;;;;;;;2.08;1.10;;;;;;;1.20;68.69;96330.31;5076387;28;20281;-63
2023/02/02 04:00:16;;;;;;;1.20;1.10;;;;;;;1.27;68.13;96333.72;5076372;28;20049;-62
2023/02/02 04:02:42;;;;;;;1.00;0.93;;;;;;;1.35;67.24;96341.41;5076337;28;20094;-63
2023/02/02 04:05:10;;;;;;;4.20;1.10;;;;;;;1.43;66.52;96325.91;5076226;28;20127;-63
2023/02/02 04:07:37;;;;;;;1.15;1.05;;;;;;;1.51;66.44;96330.16;5076257;28;20082;-62
2023/02/02 04:10:06;;;;;;;2.08;1.13;;;;;;;1.60;65.18;96333.56;5076321;28;20056;-62
2023/02/02 04:12:34;;;;;;;1.50;1.00;;;;;;;1.64;65.37;96330.97;5075922;28;20048;-62
2023/02/02 04:15:01;;;;;;;3.35;0.90;;;;;;;1.69;64.61;96333.53;5076099;28;20056;-62
2023/02/02 04:17:28;;;;;;;2.80;1.83;;;;;;;1.76;64.57;96331.75;5076134;28;20066;-62
2023/02/02 04:19:57;;;;;;;1.10;1.00;;;;;;;1.77;64.38;96331.75;5075955;28;20060;-62
2023/02/02 04:22:24;;;;;;;4.20;1.73;;;;;;;1.80;63.03;96323.13;5076016;28;20055;-63
2023/02/02 04:24:51;;;;;;;1.27;1.15;;;;;;;1.79;63.21;96328.28;5076006;28;20135;-62
2023/02/02 04:27:20;;;;;;;2.50;1.20;;;;;;;1.80;63.53;96323.13;5075921;28;20433;-62
2023/02/02 04:29:47;;;;;;;1.58;1.10;;;;;;;1.80;63.18;96320.53;5075807;28;20083;-62
2023/02/02 04:32:16;;;;;;;1.45;1.33;;;;;;;1.79;62.91;96318.81;5075803;28;20524;-62
2023/02/02 04:34:44;;;;;;;1.92;1.42;;;;;;;1.77;62.46;96323.13;5075755;28;20127;-62
2023/02/02 04:37:11;;;;;;;1.27;1.17;;;;;;;1.82;61.88;96320.53;5075763;28;20084;-62
2023/02/02 04:39:38;;;;;;;1.00;0.90;;;;;;;1.82;61.62;96328.25;5075631;28;20067;-63
2023/02/02 04:42:07;;;;;;;1.67;1.15;;;;;;;1.81;61.57;96322.25;5075062;28;20084;-62
2023/02/02 04:44:35;;;;;;;1.30;1.20;;;;;;;1.80;61.39;96322.28;5075535;28;20051;-62
2023/02/02 04:47:03;;;;;;;1.40;1.20;;;;;;;1.79;61.30;96331.72;5075619;28;20106;-62
2023/02/02 04:49:30;;;;;;;1.10;1.02;;;;;;;1.74;61.13;96342.06;5075636;28;20119;-62
2023/02/02 04:51:58;;;;;;;3.28;1.20;;;;;;;1.71;61.36;96339.50;5075423;28;20102;-62
2023/02/02 04:54:25;;;;;;;2.47;1.45;;;;;;;1.71;60.94;96342.09;5075421;28;20106;-62
2023/02/02 04:56:52;;;;;;;1.55;1.10;;;;;;;1.70;61.34;96345.53;5075391;28;20041;-62
2023/02/02 04:59:19;;;;;;;2.13;1.35;;;;;;;1.63;61.73;96346.44;5075312;28;20087;-62
2023/02/02 05:01:49;;;;;;;1.50;0.95;;;;;;;1.66;61.63;96340.41;5075372;28;20045;-62
2023/02/02 05:04:17;;;;;;;2.63;1.55;;;;;;;1.71;60.27;96343.78;5075391;28;20048;-62
2023/02/02 05:06:44;;;;;;;1.63;1.05;;;;;;;1.75;59.88;96336.03;5075192;28;20045;-62
2023/02/02 05:09:12;;;;;;;1.30;1.10;;;;;;;1.77;59.27;96346.34;5075120;28;20045;-62
2023/02/02 05:11:43;;;;;;;1.15;0.98;;;;;;;1.82;57.91;96347.19;5074762;28;20044;-62
2023/02/02 05:14:11;;;;;;;1.05;0.73;;;;;;;1.89;57.65;96353.16;5075168;28;20087;-62
2023/02/02 05:16:42;;;;;;;2.00;0.93;;;;;;;1.87;58.15;96349.75;5074975;28;20407;-62
2023/02/02 05:19:15;;;;;;;1.50;1.20;;;;;;;1.92;58.79;96357.44;5074865;28;20048;-62
2023/02/02 05:21:44;;;;;;;3.15;1.40;;;;;;;1.95;58.45;96352.25;5074901;28;20101;-62
2023/02/02 05:24:13;;;;;;;2.92;1.15;;;;;;;1.94;58.33;96356.56;5074959;28;20067;-62
2023/02/02 05:26:40;;;;;;;2.13;1.58;;;;;;;1.87;57.73;96353.16;5074904;28;20051;-62
2023/02/02 05:29:08;;;;;;;2.60;1.30;;;;;;;1.91;57.96;96368.63;5074987;28;20045;-62
2023/02/02 05:31:36;;;;;;;2.03;1.20;;;;;;;1.91;58.39;96363.47;5074887;28;20048;-62
2023/02/02 05:34:05;;;;;;;3.13;1.67;;;;;;;1.87;57.22;96368.63;5074638;28;20041;-62
2023/02/02 05:36:36;;;;;;;1.23;1.10;;;;;;;1.88;56.74;96372.09;5074632;28;20075;-62
2023/02/02 05:39:07;;;;;;;2.03;1.38;;;;;;;1.88;56.77;96357.47;5074492;28;20052;-62
2023/02/02 05:41:35;;;;;;;1.73;1.17;;;;;;;1.94;56.86;96377.22;5074622;28;20054;-62
2023/02/02 05:44:03;;;;;;;6.53;1.40;;;;;;;1.96;56.48;96380.63;5074369;28;20514;-62
2023/02/02 05:46:31;;;;;;;3.75;1.88;;;;;;;1.95;57.61;96375.47;5074409;28;20063;-62
2023/02/02 05:49:03;;;;;;;2.55;1.90;;;;;;;2.04;57.59;96377.16;5073172;28;20052;-62
2023/02/02 05:51:36;;;;;;;1.95;1.48;;;;;;;2.02;58.00;96385.75;5074350;28;20124;-62
2023/02/02 05:54:04;;;;;;;2.35;1.70;;;;;;;2.01;57.89;96381.47;5073205;28;20076;-62
2023/02/02 05:56:31;;;;;;;5.70;3.38;;;;;;;2.05;58.27;96377.16;5074166;28;20064;-62
2023/02/02 05:58:59;;;;;;;3.60;2.33;;;;;;;2.12;57.66;96377.94;5074070;28;20044;-62
2023/02/02 06:01:27;;;;;;;3.60;2.47;;;;;;;2.10;57.28;96383.13;5073994;28;20094;-63
2023/02/02 06:03:55;;;;;;;3.47;1.95;;;;;;;2.10;58.05;96379.66;5074065;28;20082;-62
2023/02/02 06:06:22;;;;;;;4.70;1.85;;;;;;;2.08;57.68;96379.69;5073902;28;20055;-62
2023/02/02 06:08:52;;;;;;;1.95;1.55;;;;;;;2.09;57.77;96383.13;5074019;28;20052;-62
2023/02/02 06:11:19;;;;;;;2.88;1.85;;;;;;;2.15;57.85;96388.25;5073671;28;20448;-62
2023/02/02 06:13:47;;;;;;;1.92;1.25;;;;;;;2.71;58.33;96389.53;5073805;28;20553;-62
2023/02/02 06:16:14;;;;;;;2.20;1.70;;;;;;;4.19;54.15;96394.69;5073810;28;20720;-62
2023/02/02 06:18:42;;;;;;;1.95;1.33;;;;;;;5.51;49.60;96395.00;5073809;28;20052;-62
2023/02/02 06:21:11;;;;;;;2.33;1.33;;;;;;;6.88;46.63;96391.09;5073786;28;20052;-63
2023/02/02 06:23:44;;;;;;;1.42;1.33;;;;;;;8.28;43.34;96375.88;5073798;28;20044;-62
2023/02/02 06:26:13;;;;;;;1.58;1.25;;;;;;;9.50;40.27;96378.81;5073755;28;20045;-63
2023/02/02 06:28:40;;;;;;;2.28;1.48;;;;;;;10.93;37.38;96385.59;5073523;28;20129;-61
2023/02/02 06:31:09;;;;;;;2.22;1.55;;;;;;;11.66;35.31;96390.31;5073515;28;20128;-63
2023/02/02 06:33:37;;;;;;;2.30;1.27;;;;;;;13.08;33.81;96390.69;5073665;28;20413;-64
2023/02/02 06:36:06;;;;;;;2.05;1.33;;;;;;;14.03;31.41;96380.56;5073505;28;20106;-64
2023/02/02 06:38:33;;;;;;;1.88;1.38;;;;;;;14.10;31.16;96386.34;5073373;28;20052;-64
2023/02/02 06:41:01;;;;;;;3.67;1.27;;;;;;;13.82;30.03;96385.19;5073496;28;20053;-63
2023/02/02 06:43:30;;;;;;;3.53;1.92;;;;;;;14.48;30.90;96380.72;5073303;28;20098;-64
2023/02/02 06:45:58;;;;;;;3.00;2.17;;;;;;;15.86;30.12;96384.16;5073506;28;20174;-64
2023/02/02 06:48:26;;;;;;;2.63;2.00;;;;;;;17.00;27.49;96376.97;5073370;28;20076;-64
2023/02/02 06:50:54;;;;;;;2.30;1.48;;;;;;;17.15;26.35;96387.47;5073279;28;20041;-65
2023/02/02 06:53:22;;;;;;;2.38;1.42;;;;;;;17.74;25.55;96382.66;5073256;28;20139;-65
2023/02/02 06:55:53;;;;;;;1.85;1.30;;;;;;;18.43;26.00;96376.09;5073360;28;20048;-65
2023/02/02 06:58:21;;;;;;;2.55;1.20;;;;;;;19.28;24.59;96378.75;5073173;28;20052;-65
2023/02/02 07:00:50;;;;;;;1.02;0.93;;;;;;;19.81;23.38;96372.06;5073069;28;20562;-64
2023/02/02 07:03:17;;;;;;;1.73;1.10;;;;;;;20.74;22.20;96369.16;5073145;28;20376;-65
2023/02/02 07:05:45;;;;;;;1.30;1.20;;;;;;;21.30;21.44;96374.38;5073032;28;20052;-65
2023/02/02 07:08:12;;;;;;;1.90;1.30;;;;;;;21.84;20.78;96376.94;5073142;28;20040;-64
2023/02/02 07:10:39;;;;;;;3.60;1.30;;;;;;;21.73;20.33;96375.16;5073034;28;20051;-65
2023/02/02 07:13:10;;;;;;;1.48;1.38;;;;;;;20.77;20.59;96389.34;5072864;28;20433;-64
2023/02/02 07:15:39;;;;;;;2.33;1.02;;;;;;;18.99;22.05;96384.44;5073023;28;20413;-64
2023/02/02 07:18:08;;;;;;;1.90;1.40;;;;;;;17.65;23.96;96384.16;5072986;28;20049;-64
2023/02/02 07:20:35;;;;;;;3.00;1.33;;;;;;;17.85;24.50;96380.09;5072895;28;20133;-64
2023/02/02 07:23:03;;;;;;;1.90;1.15;;;;;;;19.10;23.07;96376.53;5072961;28;20052;-64
2023/02/02 07:25:31;;;;;;;1.75;1.10;;;;;;;19.49;21.67;96375.41;5072800;28;20052;-64
2023/02/02 07:27:59;;;;;;;1.23;1.00;;;;;;;19.75;21.99;96380.50;5072882;28;20045;-64
2023/02/02 07:30:28;;;;;;;1.85;0.98;;;;;;;20.00;20.09;96375.91;5072810;28;20072;-64
2023/02/02 07:32:56;;;;;;;3.20;0.90;;;;;;;19.48;21.23;96386.97;5072834;28;20045;-64
2023/02/02 07:35:25;;;;;;;1.83;1.45;;;;;;;19.95;21.55;96386.91;5072730;28;20102;-64
2023/02/02 07:37:53;;;;;;;5.68;3.63;;;;;;;21.03;19.44;96384.53;5072866;28;20375;-65
2023/02/02 07:40:21;;;;;;;2.70;2.50;;;;;;;20.68;19.86;96382.97;5072785;28;20048;-65
2023/02/02 07:42:49;;;;;;;1.50;1.20;;;;;;;20.73;19.84;96372.78;5072847;28;20053;-64
2023/02/02 07:45:17;;;;;;;2.75;2.22;;;;;;;20.79;20.34;96371.44;5072780;28;20072;-64
2023/02/02 07:47:46;;;;;;;1.65;1.52;;;;;;;21.68;19.21;96382.72;5072674;28;20048;-65
2023/02/02 07:50:13;;;;;;;1.52;1.23;;;;;;;21.22;19.88;96372.34;5072707;28;20451;-64
2023/02/02 07:52:42;;;;;;;1.23;0.93;;;;;;;20.65;19.45;96368.09;5072725;28;20101;-64
2023/02/02 07:55:10;;;;;;;2.53;1.50;;;;;;;19.00;20.52;96373.72;5072653;28;20091;-64
2023/02/02 07:57:38;;;;;;;2.55;1.08;;;;;;;18.92;21.46;96379.56;5072580;28;20088;-64
2023/02/02 08:00:06;;;;;;;1.75;1.05;;;;;;;18.68;22.26;96377.78;5072493;28;20132;-63
2023/02/02 08:02:33;;;;;;;1.35;1.20;;;;;;;19.22;21.13;96388.00;5072562;28;20143;-64
2023/02/02 08:05:00;;;;;;;1.38;1.20;;;;;;;19.15;20.85;96389.44;5072567;28;20053;-64
2023/02/02 08:07:27;;;;;;;0.90;0.70;;;;;;;18.44;21.85;96388.38;5072411;28;20040;-64
2023/02/02 08:09:56;;;;;;;0.93;0.82;;;;;;;18.41;22.79;96376.19;5072547;28;20076;-64
2023/02/02 08:12:25;;;;;;;1.30;0.82;;;;;;;19.53;21.88;96369.75;5072261;28;20040;-64
2023/02/02 08:14:52;;;;;;;1.13;0.70;;;;;;;20.12;20.50;96372.34;5072578;28;20049;-64
2023/02/02 08:17:19;;;;;;;1.15;1.05;;;;;;;19.42;21.39;96369.75;5073982;28;20053;-64
2023/02/02 08:19:46;;;;;;;1.33;1.00;;;;;;;19.51;21.53;96368.19;5076038;28;20056;-64
2023/02/02 08:22:13;;;;;;;1.10;0.80;;;;;;;19.37;22.74;96377.19;5075999;28;20135;-64
2023/02/02 08:24:41;;;;;;;0.95;0.90;;;;;;;18.30;22.44;96374.31;5076087;28;20049;-63
2023/02/02 08:27:11;;;;;;;1.23;0.90;;;;;;;18.02;23.04;96381.56;5075955;28;20045;-63
2023/02/02 08:29:39;;;;;;;1.88;1.10;;;;;;;16.99;23.64;96385.84;5075885;28;20048;-64
2023/02/02 08:32:06;;;;;;;2.33;1.00;;;;;;;16.42;25.11;96385.13;5075815;28;20040;-63
2023/02/02 08:34:35;;;;;;;1.38;1.27;;;;;;;15.23;26.75;96384.38;5075925;28;20490;-63
2023/02/02 08:37:03;;;;;;;1.50;1.10;;;;;;;14.20;27.25;96391.91;5075781;28;20590;-63
2023/02/02 08:39:30;;;;;;;3.13;1.15;;;;;;;13.64;26.87;96386.09;5075526;28;20052;-63
2023/02/02 08:41:58;;;;;;;1.08;0.90;;;;;;;13.36;29.80;96379.63;5075744;28;20059;-63
2023/02/02 08:44:27;;;;;;;1.40;0.88;;;;;;;12.97;29.66;96380.72;5075720;28;20124;-63
2023/02/02 08:46:54;;;;;;;1.00;0.80;;;;;;;12.69;30.55;96389.97;5075716;28;20052;-63
2023/02/02 08:49:21;;;;;;;1.15;0.88;;;;;;;12.52;31.37;96386.41;5075609;28;20551;-63
2023/02/02 08:51:48;;;;;;;1.00;0.80;;;;;;;12.22;30.92;96395.66;5075433;28;20101;-63
2023/02/02 08:54:15;;;;;;;1.52;0.70;;;;;;;11.72;31.71;96400.53;5075433;28;20486;-63
2023/02/02 08:56:43;;;;;;;1.10;0.90;;;;;;;11.30;31.38;96404.09;5075436;28;20044;-62
2023/02/02 08:59:10;;;;;;;1.10;0.85;;;;;;;10.95;32.30;96392.44;5075490;28;20054;-62
2023/02/02 09:01:39;;;;;;;1.25;0.93;;;;;;;11.04;33.53;96392.97;5075389;28;20044;-62
2023/02/02 09:04:07;;;;;;;0.75;0.75;;;;;;;10.96;33.31;96391.53;5075241;28;20049;-62
2023/02/02 09:06:36;;;;;;;0.80;0.80;;;;;;;10.36;34.34;96390.41;5075280;28;20055;-62
2023/02/02 09:09:04;;;;;;;2.15;0.90;;;;;;;10.32;34.72;96395.81;5075315;28;20110;-62
2023/02/02 09:11:32;;;;;;;2.30;1.00;;;;;;;10.15;33.79;96394.72;5074935;28;20106;-62
2023/02/02 09:14:01;;;;;;;1.50;1.05;;;;;;;10.05;34.63;96398.59;5075128;28;20079;-62
2023/02/02 09:16:28;;;;;;;4.70;2.90;;;;;;;9.78;35.66;96391.72;5075150;28;20483;-62
2023/02/02 09:18:57;;;;;;;5.63;3.38;;;;;;;9.91;34.92;96386.91;5075088;28;20398;-62
2023/02/02 09:21:25;;;;;;;1.50;1.17;;;;;;;9.99;35.11;96381.38;5074930;28;20048;-62
2023/02/02 09:23:54;;;;;;;1.77;1.38;;;;;;;10.15;32.59;96371.19;5074875;28;20490;-61
2023/02/02 09:26:23;;;;;;;3.05;2.00;;;;;;;10.13;35.50;96367.78;5074918;28;20147;-62
2023/02/02 09:28:52;;;;;;;2.90;1.85;;;;;;;10.41;37.40;96366.69;5074707;28;20131;-62
2023/02/02 09:31:19;;;;;;;2.55;1.42;;;;;;;10.59;36.96;96361.66;5074708;28;20490;-62
2023/02/02 09:33:47;;;;;;;1.58;1.30;;;;;;;10.32;34.36;96362.69;5074721;28;20456;-62
2023/02/02 09:36:19;;;;;;;0.93;0.80;;;;;;;10.40;34.92;96353.66;5074670;28;20457;-62
2023/02/02 09:38:48;;;;;;;2.25;1.23;;;;;;;10.44;33.31;96345.66;5074655;28;20123;-62
2023/02/02 09:41:53;;;;;;;1.58;0.90;;;;;;;10.47;35.03;96347.31;5074459;28;20049;-62
2023/02/02 09:44:34;;;;;;;1.20;0.90;;;;;;;10.37;34.15;96344.19;5074614;28;20040;-61
2023/02/02 09:47:13;;;;;;;1.10;1.00;;;;;;;10.46;34.05;96333.41;5074444;28;20604;-62
2023/02/02 09:49:52;;;;;;;1.75;0.73;;;;;;;10.32;33.24;96327.81;5074314;28;20396;-62
2023/02/02 09:52:26;;;;;;;4.47;0.88;;;;;;;10.44;34.02;96308.16;5074377;28;20387;-62
2023/02/02 09:54:58;;;;;;;1.23;0.80;;;;;;;10.59;30.52;96312.81;5074249;28;20649;-61
2023/02/02 09:57:31;;;;;;;3.45;0.90;;;;;;;10.60;33.12;96306.66;5074266;28;20417;-62
2023/02/02 09:59:59;;;;;;;1.45;0.90;;;;;;;10.58;32.87;96312.88;5074273;28;20052;-62
2023/02/02 10:02:32;;;;;;;0.90;0.70;;;;;;;10.64;34.55;96302.16;5074097;28;20098;-62
2023/02/02 10:05:10;;;;;;;1.90;1.10;;;;;;;10.73;34.27;96306.16;5074205;28;20049;-62
2023/02/02 10:07:44;;;;;;;2.95;0.90;;;;;;;10.84;33.68;96297.84;5074000;28;20056;-62
2023/02/02 10:10:19;;;;;;;1.75;1.08;;;;;;;10.84;32.67;96298.69;5074094;28;20055;-62
2023/02/02 10:12:54;;;;;;;1.73;1.13;;;;;;;10.73;32.28;96293.94;5073688;28;20053;-61
2023/02/02 10:15:31;;;;;;;1.30;1.00;;;;;;;10.60;34.31;96290.97;5073838;28;20468;-62
2023/02/02 10:18:03;;;;;;;1.05;0.93;;;;;;;10.58;34.18;96287.59;5073775;28;20127;-62
2023/02/02 10:20:43;;;;;;;0.60;0.60;;;;;;;10.52;33.82;96297.44;5073886;28;20048;-62
2023/02/02 10:23:22;;;;;;;1.40;0.97;;;;;;;10.47;34.62;96295.00;5073806;28;20051;-62
2023/02/02 10:25:56;;;;;;;0.70;0.70;;;;;;;10.29;34.05;96294.00;5073753;28;20364;-62
2023/02/02 10:28:38;;;;;;;1.00;0.90;;;;;;;10.47;34.46;96292.38;5073399;28;20480;-62
2023/02/02 10:31:18;;;;;;;1.63;1.15;;;;;;;10.67;34.21;96291.56;5073663;28;20047;-62
2023/02/02 10:33:57;;;;;;;1.20;1.10;;;;;;;10.94;34.65;96303.53;5073556;28;20047;-62
2023/02/02 10:36:32;;;;;;;0.97;0.80;;;;;;;10.99;33.04;96288.50;5073594;28;20130;-61
2023/02/02 10:39:10;;;;;;;1.48;1.10;;;;;;;10.91;33.18;96285.34;5073440;28;20050;-62
2023/02/02 10:41:44;;;;;;;0.98;0.82;;;;;;;10.94;33.35;96286.06;5073296;28;20053;-62
2023/02/02 10:44:21;;;;;;;1.00;0.90;;;;;;;11.06;31.88;96275.97;5073315;28;20502;-62
2023/02/02 10:46:52;;;;;;;1.67;1.05;;;;;;;10.97;31.98;96269.38;5073392;28;20048;-62
2023/02/02 10:49:23;;;;;;;;;;;;;;;10.95;31.66;96269.44;5073765;28;20094;-62
2023/02/02 10:51:56;;;;;;;1.08;0.98;;;;;;;10.96;31.02;96263.28;5073268;28;19927;-62
2023/02/02 10:54:47;;;;;;;0.90;0.75;;;;;;;10.98;31.72;96257.97;5073249;28;20048;-62
2023/02/02 10:57:19;;;;;;;1.50;0.77;;;;;;;10.95;30.93;96265.97;5073263;28;20048;-61
2023/02/02 10:59:59;;;;;;;1.20;1.10;;;;;;;10.99;32.13;96260.53;5073232;28;20135;-62
2023/02/02 11:02:27;;;;;;;1.45;1.20;;;;;;;11.02;32.60;96266.56;5073165;28;20048;-61
2023/02/02 11:07:39;;;;;;;1.42;0.90;;;;;;;10.97;32.29;96248.44;5073213;28;20051;-61
2023/02/02 11:10:08;;;;;;;1.05;0.80;;;;;;;11.01;31.79;96254.41;5073117;28;20471;-61
2023/02/02 11:12:40;;;;;;;3.85;1.00;;;;;;;10.93;32.14;96247.72;5072880;28;20074;-61
2023/02/02 11:15:24;;;;;;;2.95;1.02;;;;;;;11.02;32.11;96243.88;5073119;28;20130;-62
2023/02/02 11:17:51;;;;;;;0.65;0.65;;;;;;;11.26;29.52;96230.59;5073171;28;20057;-61
2023/02/02 11:20:24;;;;;;;1.38;1.00;;;;;;;11.55;30.77;96248.47;5073118;28;20048;-62
2023/02/02 11:23:01;;;;;;;0.85;0.80;;;;;;;11.57;30.07;96226.53;5073077;28;20048;-61
2023/02/02 11:25:34;;;;;;;1.17;0.90;;;;;;;11.41;30.81;96226.38;5073005;28;20502;-62
2023/02/02 11:28:12;;;;;;;1.00;0.80;;;;;;;11.29;30.99;96221.72;5072927;28;20040;-61
2023/02/02 11:30:41;;;;;;;2.70;1.40;;;;;;;11.14;29.63;96211.06;5073307;28;20106;-62
2023/02/02 11:33:25;;;;;;;1.50;0.90;;;;;;;11.27;31.36;96185.16;5072967;28;20071;-62
2023/02/02 11:35:56;;;;;;;2.42;0.90;;;;;;;11.34;30.25;96185.69;5072817;28;20453;-61
2023/02/02 11:38:24;;;;;;;0.82;0.80;;;;;;;11.04;31.19;96186.19;5072864;28;20140;-61
2023/02/02 11:40:59;;;;;;;1.55;1.00;;;;;;;10.93;29.33;96195.38;5072742;28;20108;-62
2023/02/02 11:43:29;;;;;;;1.52;1.20;;;;;;;10.79;30.68;96198.63;5072658;28;20135;-61
2023/02/02 11:45:59;;;;;;;2.22;1.70;;;;;;;10.77;29.87;96204.84;5072746;28;20048;-61
2023/02/02 11:48:30;;;;;;;3.20;1.90;;;;;;;10.48;29.75;96200.81;5072801;28;20049;-61
2023/02/02 11:51:00;;;;;;;1.92;1.40;;;;;;;10.39;29.70;96197.72;5072743;28;20041;-61
2023/02/02 11:53:31;;;;;;;1.95;1.73;;;;;;;10.31;30.39;96188.44;5076053;28;20048;-61
2023/02/02 11:56:02;;;;;;;2.80;1.48;;;;;;;10.19;29.91;96181.09;5076673;28;20097;-61
2023/02/02 11:58:42;;;;;;;2.00;1.60;;;;;;;10.30;32.13;96173.63;5076534;28;20084;-61
2023/02/02 12:01:23;;;;;;;1.75;1.35;;;;;;;10.45;29.92;96159.09;5076406;28;20101;-61
2023/02/02 12:03:50;;;;;;;;;;;;;;;10.54;30.02;96168.28;5076773;28;20453;-61